
<gpx xmlns="http://www.topografix.com/GPX/1/1" xmlns:gpxx="http://www.garmin.com/xmlschemas/GpxExtensions/v3" xmlns:xsi="http://www.w3.org/2001/XMLSchema-instance" version="1.1" creator="Adze - https://getadze.com/" xsi:schemaLocation="http://www.topografix.com/GPX/1/1 http://www.topografix.com/GPX/1/1/gpx.xsd http://www.garmin.com/xmlschemas/GpxExtensions/v3 http://www8.garmin.com/xmlschemas/GpxExtensionsv3.xsd">
    <metadata>
        <name>Untitled Document</name>
        <link href="http://www.garmin.com"></link>
        <time>2018-03-05T02:42:32.353Z</time>
    </metadata>
    <trk>
        <name>October 2004 - Sunday</name>
        <extensions>
            <gpxx:TrackExtension>
                <gpxx:DisplayColor>DarkGray</gpxx:DisplayColor>
            </gpxx:TrackExtension>
        </extensions>
        <trkseg>
            <trkpt lon="100.994182" lat="12.918334">
                <ele>100.595093</ele>
                <time>2004-10-31T00:19:37Z</time>
            </trkpt>
            <trkpt lon="100.994182" lat="12.918313">
                <ele>79.446045</ele>
                <time>2004-10-31T00:22:23Z</time>
            </trkpt>
            <trkpt lon="100.994182" lat="12.918270">
                <ele>78.965454</ele>
                <time>2004-10-31T00:24:02Z</time>
            </trkpt>
            <trkpt lon="100.994525" lat="12.918184">
                <ele>78.484741</ele>
                <time>2004-10-31T00:24:14Z</time>
            </trkpt>
            <trkpt lon="100.995040" lat="12.918119">
                <ele>79.446045</ele>
                <time>2004-10-31T00:24:28Z</time>
            </trkpt>
            <trkpt lon="100.995061" lat="12.918355">
                <ele>81.368774</ele>
                <time>2004-10-31T00:24:37Z</time>
            </trkpt>
            <trkpt lon="100.994954" lat="12.918398">
                <ele>81.849365</ele>
                <time>2004-10-31T00:24:40Z</time>
            </trkpt>
            <trkpt lon="100.994053" lat="12.918613">
                <ele>84.252686</ele>
                <time>2004-10-31T00:25:00Z</time>
            </trkpt>
            <trkpt lon="100.993924" lat="12.918634">
                <ele>84.733398</ele>
                <time>2004-10-31T00:25:03Z</time>
            </trkpt>
            <trkpt lon="100.993044" lat="12.918420">
                <ele>84.733398</ele>
                <time>2004-10-31T00:25:21Z</time>
            </trkpt>
            <trkpt lon="100.992379" lat="12.918141">
                <ele>84.733398</ele>
                <time>2004-10-31T00:25:38Z</time>
            </trkpt>
            <trkpt lon="100.992336" lat="12.918162">
                <ele>85.213989</ele>
                <time>2004-10-31T00:25:57Z</time>
            </trkpt>
            <trkpt lon="100.992229" lat="12.918377">
                <ele>85.213989</ele>
                <time>2004-10-31T00:26:09Z</time>
            </trkpt>
            <trkpt lon="100.992079" lat="12.918699">
                <ele>86.175293</ele>
                <time>2004-10-31T00:26:22Z</time>
            </trkpt>
            <trkpt lon="100.992014" lat="12.918828">
                <ele>87.136597</ele>
                <time>2004-10-31T00:26:27Z</time>
            </trkpt>
            <trkpt lon="100.991800" lat="12.918978">
                <ele>86.656006</ele>
                <time>2004-10-31T00:26:36Z</time>
            </trkpt>
            <trkpt lon="100.991735" lat="12.919021">
                <ele>86.175293</ele>
                <time>2004-10-31T00:26:47Z</time>
            </trkpt>
            <trkpt lon="100.991478" lat="12.919042">
                <ele>86.175293</ele>
                <time>2004-10-31T00:26:59Z</time>
            </trkpt>
            <trkpt lon="100.990813" lat="12.919064">
                <ele>85.694580</ele>
                <time>2004-10-31T00:27:17Z</time>
            </trkpt>
            <trkpt lon="100.990276" lat="12.919128">
                <ele>84.733398</ele>
                <time>2004-10-31T00:27:34Z</time>
            </trkpt>
            <trkpt lon="100.990212" lat="12.919106">
                <ele>84.733398</ele>
                <time>2004-10-31T00:27:45Z</time>
            </trkpt>
            <trkpt lon="100.989740" lat="12.918978">
                <ele>82.330078</ele>
                <time>2004-10-31T00:28:02Z</time>
            </trkpt>
            <trkpt lon="100.989096" lat="12.918913">
                <ele>81.368774</ele>
                <time>2004-10-31T00:28:18Z</time>
            </trkpt>
            <trkpt lon="100.988452" lat="12.918763">
                <ele>80.407471</ele>
                <time>2004-10-31T00:28:34Z</time>
            </trkpt>
            <trkpt lon="100.988259" lat="12.918785">
                <ele>79.926636</ele>
                <time>2004-10-31T00:28:39Z</time>
            </trkpt>
            <trkpt lon="100.988066" lat="12.918956">
                <ele>79.926636</ele>
                <time>2004-10-31T00:28:47Z</time>
            </trkpt>
            <trkpt lon="100.988045" lat="12.919042">
                <ele>80.407471</ele>
                <time>2004-10-31T00:28:58Z</time>
            </trkpt>
            <trkpt lon="100.988023" lat="12.919385">
                <ele>81.368774</ele>
                <time>2004-10-31T00:29:09Z</time>
            </trkpt>
            <trkpt lon="100.987937" lat="12.919836">
                <ele>78.484741</ele>
                <time>2004-10-31T00:29:23Z</time>
            </trkpt>
            <trkpt lon="100.987873" lat="12.919879">
                <ele>78.484741</ele>
                <time>2004-10-31T00:29:31Z</time>
            </trkpt>
            <trkpt lon="100.987809" lat="12.919772">
                <ele>79.446045</ele>
                <time>2004-10-31T00:29:40Z</time>
            </trkpt>
            <trkpt lon="100.987830" lat="12.919729">
                <ele>80.407471</ele>
                <time>2004-10-31T00:29:50Z</time>
            </trkpt>
            <trkpt lon="100.987852" lat="12.919428">
                <ele>80.888184</ele>
                <time>2004-10-31T00:30:03Z</time>
            </trkpt>
            <trkpt lon="100.987852" lat="12.919450">
                <ele>79.926636</ele>
                <time>2004-10-31T00:30:21Z</time>
            </trkpt>
            <trkpt lon="100.987830" lat="12.919450">
                <ele>81.368774</ele>
                <time>2004-10-31T00:30:41Z</time>
            </trkpt>
            <trkpt lon="100.987809" lat="12.919428">
                <ele>79.446045</ele>
                <time>2004-10-31T00:31:02Z</time>
            </trkpt>
            <trkpt lon="100.987766" lat="12.919407">
                <ele>79.446045</ele>
                <time>2004-10-31T00:31:06Z</time>
            </trkpt>
            <trkpt lon="100.987680" lat="12.919407">
                <ele>79.446045</ele>
                <time>2004-10-31T00:31:20Z</time>
            </trkpt>
            <trkpt lon="100.987659" lat="12.919407">
                <ele>82.810791</ele>
                <time>2004-10-31T00:31:43Z</time>
            </trkpt>
            <trkpt lon="100.987380" lat="12.919471">
                <ele>81.849365</ele>
                <time>2004-10-31T00:31:55Z</time>
            </trkpt>
            <trkpt lon="100.986564" lat="12.919879">
                <ele>82.330078</ele>
                <time>2004-10-31T00:32:14Z</time>
            </trkpt>
            <trkpt lon="100.986414" lat="12.919965">
                <ele>79.926636</ele>
                <time>2004-10-31T00:32:23Z</time>
            </trkpt>
            <trkpt lon="100.986242" lat="12.920051">
                <ele>79.446045</ele>
                <time>2004-10-31T00:32:41Z</time>
            </trkpt>
            <trkpt lon="100.985878" lat="12.920222">
                <ele>75.600830</ele>
                <time>2004-10-31T00:32:52Z</time>
            </trkpt>
            <trkpt lon="100.985749" lat="12.920265">
                <ele>74.639526</ele>
                <time>2004-10-31T00:33:07Z</time>
            </trkpt>
            <trkpt lon="100.984976" lat="12.920351">
                <ele>71.755493</ele>
                <time>2004-10-31T00:33:23Z</time>
            </trkpt>
            <trkpt lon="100.984375" lat="12.920480">
                <ele>72.236206</ele>
                <time>2004-10-31T00:33:39Z</time>
            </trkpt>
            <trkpt lon="100.984032" lat="12.920587">
                <ele>69.832886</ele>
                <time>2004-10-31T00:33:56Z</time>
            </trkpt>
            <trkpt lon="100.984011" lat="12.920587">
                <ele>69.832886</ele>
                <time>2004-10-31T00:34:00Z</time>
            </trkpt>
            <trkpt lon="100.983989" lat="12.920716">
                <ele>70.313477</ele>
                <time>2004-10-31T00:34:06Z</time>
            </trkpt>
            <trkpt lon="100.984011" lat="12.920673">
                <ele>78.004028</ele>
                <time>2004-10-31T00:35:06Z</time>
            </trkpt>
            <trkpt lon="100.984054" lat="12.920458">
                <ele>75.600830</ele>
                <time>2004-10-31T00:35:26Z</time>
            </trkpt>
            <trkpt lon="100.983989" lat="12.920415">
                <ele>75.120239</ele>
                <time>2004-10-31T00:35:36Z</time>
            </trkpt>
            <trkpt lon="100.983839" lat="12.920029">
                <ele>75.600830</ele>
                <time>2004-10-31T00:35:57Z</time>
            </trkpt>
            <trkpt lon="100.983496" lat="12.919836">
                <ele>74.158813</ele>
                <time>2004-10-31T00:36:13Z</time>
            </trkpt>
            <trkpt lon="100.983088" lat="12.919579">
                <ele>74.639526</ele>
                <time>2004-10-31T00:36:34Z</time>
            </trkpt>
            <trkpt lon="100.982745" lat="12.918935">
                <ele>74.158813</ele>
                <time>2004-10-31T00:37:00Z</time>
            </trkpt>
            <trkpt lon="100.982337" lat="12.918420">
                <ele>73.678223</ele>
                <time>2004-10-31T00:37:18Z</time>
            </trkpt>
            <trkpt lon="100.982144" lat="12.918184">
                <ele>73.197632</ele>
                <time>2004-10-31T00:37:30Z</time>
            </trkpt>
            <trkpt lon="100.981908" lat="12.918034">
                <ele>78.965454</ele>
                <time>2004-10-31T00:38:35Z</time>
            </trkpt>
            <trkpt lon="100.981736" lat="12.917883">
                <ele>87.136597</ele>
                <time>2004-10-31T00:40:00Z</time>
            </trkpt>
            <trkpt lon="100.981414" lat="12.917583">
                <ele>85.213989</ele>
                <time>2004-10-31T00:40:14Z</time>
            </trkpt>
            <trkpt lon="100.980835" lat="12.917304">
                <ele>78.965454</ele>
                <time>2004-10-31T00:40:33Z</time>
            </trkpt>
            <trkpt lon="100.980384" lat="12.917175">
                <ele>75.600830</ele>
                <time>2004-10-31T00:40:47Z</time>
            </trkpt>
            <trkpt lon="100.979805" lat="12.917025">
                <ele>72.236206</ele>
                <time>2004-10-31T00:41:06Z</time>
            </trkpt>
            <trkpt lon="100.979311" lat="12.916896">
                <ele>69.832886</ele>
                <time>2004-10-31T00:41:23Z</time>
            </trkpt>
            <trkpt lon="100.978732" lat="12.917089">
                <ele>69.352295</ele>
                <time>2004-10-31T00:41:40Z</time>
            </trkpt>
            <trkpt lon="100.978303" lat="12.917154">
                <ele>69.352295</ele>
                <time>2004-10-31T00:41:50Z</time>
            </trkpt>
            <trkpt lon="100.977380" lat="12.917304">
                <ele>65.507080</ele>
                <time>2004-10-31T00:42:07Z</time>
            </trkpt>
            <trkpt lon="100.975986" lat="12.917540">
                <ele>61.661743</ele>
                <time>2004-10-31T00:42:28Z</time>
            </trkpt>
            <trkpt lon="100.974483" lat="12.917798">
                <ele>58.777710</ele>
                <time>2004-10-31T00:42:51Z</time>
            </trkpt>
            <trkpt lon="100.973217" lat="12.917969">
                <ele>55.893799</ele>
                <time>2004-10-31T00:43:10Z</time>
            </trkpt>
            <trkpt lon="100.972080" lat="12.918162">
                <ele>54.932373</ele>
                <time>2004-10-31T00:43:28Z</time>
            </trkpt>
            <trkpt lon="100.970900" lat="12.918355">
                <ele>52.529175</ele>
                <time>2004-10-31T00:43:47Z</time>
            </trkpt>
            <trkpt lon="100.969827" lat="12.918549">
                <ele>50.606567</ele>
                <time>2004-10-31T00:44:04Z</time>
            </trkpt>
            <trkpt lon="100.968518" lat="12.918806">
                <ele>49.645264</ele>
                <time>2004-10-31T00:44:25Z</time>
            </trkpt>
            <trkpt lon="100.967960" lat="12.919257">
                <ele>50.125977</ele>
                <time>2004-10-31T00:44:41Z</time>
            </trkpt>
            <trkpt lon="100.967445" lat="12.919836">
                <ele>48.203369</ele>
                <time>2004-10-31T00:44:58Z</time>
            </trkpt>
            <trkpt lon="100.966802" lat="12.920179">
                <ele>46.761230</ele>
                <time>2004-10-31T00:45:15Z</time>
            </trkpt>
            <trkpt lon="100.966737" lat="12.920201">
                <ele>45.319214</ele>
                <time>2004-10-31T00:45:24Z</time>
            </trkpt>
            <trkpt lon="100.966372" lat="12.920330">
                <ele>44.838623</ele>
                <time>2004-10-31T00:45:35Z</time>
            </trkpt>
            <trkpt lon="100.965407" lat="12.920651">
                <ele>44.358032</ele>
                <time>2004-10-31T00:45:57Z</time>
            </trkpt>
            <trkpt lon="100.964549" lat="12.920952">
                <ele>40.993408</ele>
                <time>2004-10-31T00:46:15Z</time>
            </trkpt>
            <trkpt lon="100.963948" lat="12.921166">
                <ele>41.954712</ele>
                <time>2004-10-31T00:46:28Z</time>
            </trkpt>
            <trkpt lon="100.963862" lat="12.921188">
                <ele>41.954712</ele>
                <time>2004-10-31T00:46:30Z</time>
            </trkpt>
            <trkpt lon="100.963368" lat="12.921252">
                <ele>41.954712</ele>
                <time>2004-10-31T00:46:43Z</time>
            </trkpt>
            <trkpt lon="100.962596" lat="12.921102">
                <ele>41.473999</ele>
                <time>2004-10-31T00:46:59Z</time>
            </trkpt>
            <trkpt lon="100.961781" lat="12.920930">
                <ele>41.954712</ele>
                <time>2004-10-31T00:47:16Z</time>
            </trkpt>
            <trkpt lon="100.960729" lat="12.920694">
                <ele>42.435425</ele>
                <time>2004-10-31T00:47:37Z</time>
            </trkpt>
            <trkpt lon="100.960042" lat="12.920523">
                <ele>42.435425</ele>
                <time>2004-10-31T00:47:55Z</time>
            </trkpt>
            <trkpt lon="100.959957" lat="12.920523">
                <ele>42.435425</ele>
                <time>2004-10-31T00:48:05Z</time>
            </trkpt>
            <trkpt lon="100.959914" lat="12.920544">
                <ele>42.916016</ele>
                <time>2004-10-31T00:48:09Z</time>
            </trkpt>
            <trkpt lon="100.959721" lat="12.920673">
                <ele>42.435425</ele>
                <time>2004-10-31T00:48:23Z</time>
            </trkpt>
            <trkpt lon="100.959678" lat="12.920694">
                <ele>44.358032</ele>
                <time>2004-10-31T00:48:36Z</time>
            </trkpt>
            <trkpt lon="100.959656" lat="12.920759">
                <ele>42.916016</ele>
                <time>2004-10-31T00:48:55Z</time>
            </trkpt>
            <trkpt lon="100.959592" lat="12.920780">
                <ele>43.877319</ele>
                <time>2004-10-31T00:49:16Z</time>
            </trkpt>
            <trkpt lon="100.959527" lat="12.920823">
                <ele>42.916016</ele>
                <time>2004-10-31T00:49:21Z</time>
            </trkpt>
            <trkpt lon="100.959334" lat="12.920737">
                <ele>42.435425</ele>
                <time>2004-10-31T00:49:35Z</time>
            </trkpt>
            <trkpt lon="100.958991" lat="12.920694">
                <ele>42.435425</ele>
                <time>2004-10-31T00:49:51Z</time>
            </trkpt>
            <trkpt lon="100.958626" lat="12.920759">
                <ele>41.473999</ele>
                <time>2004-10-31T00:50:06Z</time>
            </trkpt>
            <trkpt lon="100.958326" lat="12.920802">
                <ele>41.473999</ele>
                <time>2004-10-31T00:50:19Z</time>
            </trkpt>
            <trkpt lon="100.958068" lat="12.920887">
                <ele>40.993408</ele>
                <time>2004-10-31T00:50:32Z</time>
            </trkpt>
            <trkpt lon="100.957983" lat="12.920973">
                <ele>40.993408</ele>
                <time>2004-10-31T00:50:39Z</time>
            </trkpt>
            <trkpt lon="100.957983" lat="12.921016">
                <ele>40.993408</ele>
                <time>2004-10-31T00:50:44Z</time>
            </trkpt>
            <trkpt lon="100.958025" lat="12.921102">
                <ele>41.954712</ele>
                <time>2004-10-31T00:50:51Z</time>
            </trkpt>
            <trkpt lon="100.958047" lat="12.921402">
                <ele>40.512817</ele>
                <time>2004-10-31T00:51:06Z</time>
            </trkpt>
            <trkpt lon="100.958068" lat="12.921638">
                <ele>41.473999</ele>
                <time>2004-10-31T00:51:18Z</time>
            </trkpt>
            <trkpt lon="100.957961" lat="12.921767">
                <ele>42.435425</ele>
                <time>2004-10-31T00:51:30Z</time>
            </trkpt>
            <trkpt lon="100.957961" lat="12.921789">
                <ele>41.954712</ele>
                <time>2004-10-31T00:51:36Z</time>
            </trkpt>
            <trkpt lon="100.958090" lat="12.922089">
                <ele>41.473999</ele>
                <time>2004-10-31T00:51:50Z</time>
            </trkpt>
            <trkpt lon="100.958025" lat="12.922411">
                <ele>42.435425</ele>
                <time>2004-10-31T00:52:04Z</time>
            </trkpt>
            <trkpt lon="100.957961" lat="12.922497">
                <ele>41.954712</ele>
                <time>2004-10-31T00:52:09Z</time>
            </trkpt>
            <trkpt lon="100.957811" lat="12.922497">
                <ele>43.396606</ele>
                <time>2004-10-31T00:52:18Z</time>
            </trkpt>
            <trkpt lon="100.957704" lat="12.922497">
                <ele>44.838623</ele>
                <time>2004-10-31T00:52:35Z</time>
            </trkpt>
            <trkpt lon="100.957575" lat="12.922475">
                <ele>40.032104</ele>
                <time>2004-10-31T00:52:48Z</time>
            </trkpt>
            <trkpt lon="100.957124" lat="12.922518">
                <ele>40.032104</ele>
                <time>2004-10-31T00:53:00Z</time>
            </trkpt>
            <trkpt lon="100.957038" lat="12.922497">
                <ele>40.032104</ele>
                <time>2004-10-31T00:53:03Z</time>
            </trkpt>
            <trkpt lon="100.956824" lat="12.922196">
                <ele>40.032104</ele>
                <time>2004-10-31T00:53:17Z</time>
            </trkpt>
            <trkpt lon="100.956802" lat="12.922196">
                <ele>40.032104</ele>
                <time>2004-10-31T00:53:18Z</time>
            </trkpt>
            <trkpt lon="100.956759" lat="12.922196">
                <ele>40.512817</ele>
                <time>2004-10-31T00:53:21Z</time>
            </trkpt>
            <trkpt lon="100.956588" lat="12.922218">
                <ele>40.993408</ele>
                <time>2004-10-31T00:53:33Z</time>
            </trkpt>
            <trkpt lon="100.956373" lat="12.922218">
                <ele>46.280640</ele>
                <time>2004-10-31T00:54:34Z</time>
            </trkpt>
            <trkpt lon="100.955901" lat="12.922196">
                <ele>48.203369</ele>
                <time>2004-10-31T00:54:49Z</time>
            </trkpt>
            <trkpt lon="100.955515" lat="12.922218">
                <ele>47.241821</ele>
                <time>2004-10-31T00:55:03Z</time>
            </trkpt>
            <trkpt lon="100.955408" lat="12.921960">
                <ele>48.683960</ele>
                <time>2004-10-31T00:55:16Z</time>
            </trkpt>
            <trkpt lon="100.955408" lat="12.921703">
                <ele>50.606567</ele>
                <time>2004-10-31T00:55:36Z</time>
            </trkpt>
            <trkpt lon="100.955408" lat="12.921660">
                <ele>50.606567</ele>
                <time>2004-10-31T00:55:54Z</time>
            </trkpt>
            <trkpt lon="100.955043" lat="12.921660">
                <ele>51.567871</ele>
                <time>2004-10-31T00:56:15Z</time>
            </trkpt>
            <trkpt lon="100.954828" lat="12.921574">
                <ele>47.241821</ele>
                <time>2004-10-31T00:56:26Z</time>
            </trkpt>
            <trkpt lon="100.954764" lat="12.921617">
                <ele>42.916016</ele>
                <time>2004-10-31T00:56:38Z</time>
            </trkpt>
            <trkpt lon="100.954721" lat="12.921724">
                <ele>42.435425</ele>
                <time>2004-10-31T00:56:44Z</time>
            </trkpt>
            <trkpt lon="100.954657" lat="12.921810">
                <ele>41.473999</ele>
                <time>2004-10-31T00:56:49Z</time>
            </trkpt>
            <trkpt lon="100.954614" lat="12.921917">
                <ele>40.512817</ele>
                <time>2004-10-31T00:56:57Z</time>
            </trkpt>
            <trkpt lon="100.954592" lat="12.922111">
                <ele>40.512817</ele>
                <time>2004-10-31T00:57:10Z</time>
            </trkpt>
            <trkpt lon="100.954614" lat="12.922196">
                <ele>39.551270</ele>
                <time>2004-10-31T00:57:26Z</time>
            </trkpt>
            <trkpt lon="100.954614" lat="12.922304">
                <ele>39.070679</ele>
                <time>2004-10-31T00:57:46Z</time>
            </trkpt>
            <trkpt lon="100.954571" lat="12.922390">
                <ele>42.435425</ele>
                <time>2004-10-31T00:58:04Z</time>
            </trkpt>
            <trkpt lon="100.954571" lat="12.922411">
                <ele>42.916016</ele>
                <time>2004-10-31T00:58:07Z</time>
            </trkpt>
            <trkpt lon="100.954399" lat="12.922540">
                <ele>41.954712</ele>
                <time>2004-10-31T00:58:18Z</time>
            </trkpt>
            <trkpt lon="100.954335" lat="12.922690">
                <ele>42.916016</ele>
                <time>2004-10-31T00:58:33Z</time>
            </trkpt>
            <trkpt lon="100.954313" lat="12.922754">
                <ele>42.435425</ele>
                <time>2004-10-31T00:58:50Z</time>
            </trkpt>
            <trkpt lon="100.954292" lat="12.922733">
                <ele>45.799927</ele>
                <time>2004-10-31T00:59:10Z</time>
            </trkpt>
            <trkpt lon="100.954270" lat="12.922690">
                <ele>46.280640</ele>
                <time>2004-10-31T00:59:28Z</time>
            </trkpt>
            <trkpt lon="100.954206" lat="12.922690">
                <ele>43.877319</ele>
                <time>2004-10-31T00:59:38Z</time>
            </trkpt>
            <trkpt lon="100.954034" lat="12.922754">
                <ele>42.916016</ele>
                <time>2004-10-31T00:59:57Z</time>
            </trkpt>
            <trkpt lon="100.953906" lat="12.922776">
                <ele>43.396606</ele>
                <time>2004-10-31T01:00:08Z</time>
            </trkpt>
            <trkpt lon="100.953863" lat="12.922754">
                <ele>45.319214</ele>
                <time>2004-10-31T01:00:23Z</time>
            </trkpt>
            <trkpt lon="100.953863" lat="12.922754">
                <ele>43.877319</ele>
                <time>2004-10-31T01:00:52Z</time>
            </trkpt>
            <trkpt lon="100.953798" lat="12.922304">
                <ele>43.877319</ele>
                <time>2004-10-31T01:01:11Z</time>
            </trkpt>
            <trkpt lon="100.953712" lat="12.921596">
                <ele>44.358032</ele>
                <time>2004-10-31T01:01:32Z</time>
            </trkpt>
            <trkpt lon="100.953691" lat="12.920887">
                <ele>45.799927</ele>
                <time>2004-10-31T01:01:51Z</time>
            </trkpt>
            <trkpt lon="100.953948" lat="12.920501">
                <ele>46.761230</ele>
                <time>2004-10-31T01:02:05Z</time>
            </trkpt>
            <trkpt lon="100.954549" lat="12.920287">
                <ele>49.164551</ele>
                <time>2004-10-31T01:02:22Z</time>
            </trkpt>
            <trkpt lon="100.955343" lat="12.920222">
                <ele>52.529175</ele>
                <time>2004-10-31T01:02:42Z</time>
            </trkpt>
            <trkpt lon="100.956223" lat="12.920115">
                <ele>52.048584</ele>
                <time>2004-10-31T01:03:07Z</time>
            </trkpt>
            <trkpt lon="100.956309" lat="12.919815">
                <ele>52.048584</ele>
                <time>2004-10-31T01:03:21Z</time>
            </trkpt>
            <trkpt lon="100.956244" lat="12.919407">
                <ele>52.529175</ele>
                <time>2004-10-31T01:03:35Z</time>
            </trkpt>
            <trkpt lon="100.956137" lat="12.918699">
                <ele>53.971191</ele>
                <time>2004-10-31T01:03:57Z</time>
            </trkpt>
            <trkpt lon="100.956008" lat="12.918098">
                <ele>54.932373</ele>
                <time>2004-10-31T01:04:15Z</time>
            </trkpt>
            <trkpt lon="100.955901" lat="12.917583">
                <ele>55.413086</ele>
                <time>2004-10-31T01:04:31Z</time>
            </trkpt>
            <trkpt lon="100.955772" lat="12.917068">
                <ele>57.335815</ele>
                <time>2004-10-31T01:04:47Z</time>
            </trkpt>
            <trkpt lon="100.955622" lat="12.916532">
                <ele>56.855103</ele>
                <time>2004-10-31T01:05:01Z</time>
            </trkpt>
            <trkpt lon="100.955558" lat="12.915931">
                <ele>56.374512</ele>
                <time>2004-10-31T01:05:17Z</time>
            </trkpt>
            <trkpt lon="100.955322" lat="12.915587">
                <ele>56.374512</ele>
                <time>2004-10-31T01:05:28Z</time>
            </trkpt>
            <trkpt lon="100.954893" lat="12.915072">
                <ele>55.893799</ele>
                <time>2004-10-31T01:05:45Z</time>
            </trkpt>
            <trkpt lon="100.954807" lat="12.914879">
                <ele>55.893799</ele>
                <time>2004-10-31T01:05:54Z</time>
            </trkpt>
            <trkpt lon="100.954592" lat="12.914665">
                <ele>55.893799</ele>
                <time>2004-10-31T01:06:07Z</time>
            </trkpt>
            <trkpt lon="100.954185" lat="12.914386">
                <ele>56.374512</ele>
                <time>2004-10-31T01:06:21Z</time>
            </trkpt>
            <trkpt lon="100.953798" lat="12.914257">
                <ele>57.335815</ele>
                <time>2004-10-31T01:06:36Z</time>
            </trkpt>
            <trkpt lon="100.953348" lat="12.914000">
                <ele>56.855103</ele>
                <time>2004-10-31T01:06:53Z</time>
            </trkpt>
            <trkpt lon="100.952833" lat="12.913892">
                <ele>55.893799</ele>
                <time>2004-10-31T01:07:09Z</time>
            </trkpt>
            <trkpt lon="100.952489" lat="12.913785">
                <ele>55.893799</ele>
                <time>2004-10-31T01:07:23Z</time>
            </trkpt>
            <trkpt lon="100.952446" lat="12.913785">
                <ele>56.374512</ele>
                <time>2004-10-31T01:07:37Z</time>
            </trkpt>
            <trkpt lon="100.952382" lat="12.913742">
                <ele>55.413086</ele>
                <time>2004-10-31T01:08:06Z</time>
            </trkpt>
            <trkpt lon="100.952404" lat="12.913721">
                <ele>53.490479</ele>
                <time>2004-10-31T01:09:13Z</time>
            </trkpt>
            <trkpt lon="100.952468" lat="12.913785">
                <ele>53.971191</ele>
                <time>2004-10-31T01:09:30Z</time>
            </trkpt>
            <trkpt lon="100.952575" lat="12.913849">
                <ele>54.451782</ele>
                <time>2004-10-31T01:09:41Z</time>
            </trkpt>
            <trkpt lon="100.953069" lat="12.913935">
                <ele>56.374512</ele>
                <time>2004-10-31T01:09:56Z</time>
            </trkpt>
            <trkpt lon="100.953605" lat="12.914193">
                <ele>57.335815</ele>
                <time>2004-10-31T01:10:11Z</time>
            </trkpt>
            <trkpt lon="100.954292" lat="12.914472">
                <ele>58.297119</ele>
                <time>2004-10-31T01:10:28Z</time>
            </trkpt>
            <trkpt lon="100.954421" lat="12.914515">
                <ele>58.297119</ele>
                <time>2004-10-31T01:10:31Z</time>
            </trkpt>
            <trkpt lon="100.954850" lat="12.914901">
                <ele>58.297119</ele>
                <time>2004-10-31T01:10:45Z</time>
            </trkpt>
            <trkpt lon="100.955215" lat="12.915030">
                <ele>59.258423</ele>
                <time>2004-10-31T01:11:01Z</time>
            </trkpt>
            <trkpt lon="100.955429" lat="12.915072">
                <ele>60.219727</ele>
                <time>2004-10-31T01:11:14Z</time>
            </trkpt>
            <trkpt lon="100.955987" lat="12.915266">
                <ele>60.700317</ele>
                <time>2004-10-31T01:11:30Z</time>
            </trkpt>
            <trkpt lon="100.956566" lat="12.915308">
                <ele>61.181030</ele>
                <time>2004-10-31T01:11:46Z</time>
            </trkpt>
            <trkpt lon="100.956931" lat="12.915158">
                <ele>59.739136</ele>
                <time>2004-10-31T01:11:56Z</time>
            </trkpt>
            <trkpt lon="100.957038" lat="12.915030">
                <ele>59.258423</ele>
                <time>2004-10-31T01:12:00Z</time>
            </trkpt>
            <trkpt lon="100.957725" lat="12.914536">
                <ele>54.451782</ele>
                <time>2004-10-31T01:12:18Z</time>
            </trkpt>
            <trkpt lon="100.958433" lat="12.914128">
                <ele>51.567871</ele>
                <time>2004-10-31T01:12:34Z</time>
            </trkpt>
            <trkpt lon="100.958841" lat="12.913957">
                <ele>51.087158</ele>
                <time>2004-10-31T01:12:48Z</time>
            </trkpt>
            <trkpt lon="100.959420" lat="12.913721">
                <ele>50.606567</ele>
                <time>2004-10-31T01:13:05Z</time>
            </trkpt>
            <trkpt lon="100.960021" lat="12.913699">
                <ele>51.567871</ele>
                <time>2004-10-31T01:13:20Z</time>
            </trkpt>
            <trkpt lon="100.960772" lat="12.913828">
                <ele>52.048584</ele>
                <time>2004-10-31T01:13:39Z</time>
            </trkpt>
            <trkpt lon="100.961394" lat="12.913871">
                <ele>53.009766</ele>
                <time>2004-10-31T01:13:55Z</time>
            </trkpt>
            <trkpt lon="100.961931" lat="12.913699">
                <ele>53.009766</ele>
                <time>2004-10-31T01:14:10Z</time>
            </trkpt>
            <trkpt lon="100.962489" lat="12.913442">
                <ele>52.048584</ele>
                <time>2004-10-31T01:14:25Z</time>
            </trkpt>
            <trkpt lon="100.962896" lat="12.913227">
                <ele>52.048584</ele>
                <time>2004-10-31T01:14:39Z</time>
            </trkpt>
            <trkpt lon="100.962918" lat="12.913227">
                <ele>51.087158</ele>
                <time>2004-10-31T01:14:55Z</time>
            </trkpt>
            <trkpt lon="100.963004" lat="12.913206">
                <ele>49.645264</ele>
                <time>2004-10-31T01:15:07Z</time>
            </trkpt>
            <trkpt lon="100.963004" lat="12.913184">
                <ele>49.164551</ele>
                <time>2004-10-31T01:15:08Z</time>
            </trkpt>
            <trkpt lon="100.963025" lat="12.913141">
                <ele>47.241821</ele>
                <time>2004-10-31T01:15:26Z</time>
            </trkpt>
            <trkpt lon="100.963025" lat="12.913141">
                <ele>47.241821</ele>
                <time>2004-10-31T01:15:27Z</time>
            </trkpt>
            <trkpt lon="100.962896" lat="12.912712">
                <ele>48.683960</ele>
                <time>2004-10-31T01:15:44Z</time>
            </trkpt>
            <trkpt lon="100.962811" lat="12.912090">
                <ele>48.683960</ele>
                <time>2004-10-31T01:16:03Z</time>
            </trkpt>
            <trkpt lon="100.962639" lat="12.911489">
                <ele>47.722534</ele>
                <time>2004-10-31T01:16:21Z</time>
            </trkpt>
            <trkpt lon="100.962510" lat="12.910974">
                <ele>46.761230</ele>
                <time>2004-10-31T01:16:38Z</time>
            </trkpt>
            <trkpt lon="100.962553" lat="12.910287">
                <ele>45.799927</ele>
                <time>2004-10-31T01:16:56Z</time>
            </trkpt>
            <trkpt lon="100.962746" lat="12.909837">
                <ele>43.877319</ele>
                <time>2004-10-31T01:17:11Z</time>
            </trkpt>
            <trkpt lon="100.963047" lat="12.909515">
                <ele>42.916016</ele>
                <time>2004-10-31T01:17:27Z</time>
            </trkpt>
            <trkpt lon="100.963197" lat="12.909214">
                <ele>42.435425</ele>
                <time>2004-10-31T01:17:41Z</time>
            </trkpt>
            <trkpt lon="100.963540" lat="12.908635">
                <ele>42.916016</ele>
                <time>2004-10-31T01:17:59Z</time>
            </trkpt>
            <trkpt lon="100.963755" lat="12.908185">
                <ele>44.838623</ele>
                <time>2004-10-31T01:18:13Z</time>
            </trkpt>
            <trkpt lon="100.963969" lat="12.907691">
                <ele>45.799927</ele>
                <time>2004-10-31T01:18:30Z</time>
            </trkpt>
            <trkpt lon="100.964227" lat="12.907133">
                <ele>46.280640</ele>
                <time>2004-10-31T01:18:47Z</time>
            </trkpt>
            <trkpt lon="100.964355" lat="12.906597">
                <ele>48.683960</ele>
                <time>2004-10-31T01:19:03Z</time>
            </trkpt>
            <trkpt lon="100.964506" lat="12.906168">
                <ele>49.645264</ele>
                <time>2004-10-31T01:19:16Z</time>
            </trkpt>
            <trkpt lon="100.964484" lat="12.906060">
                <ele>50.125977</ele>
                <time>2004-10-31T01:19:21Z</time>
            </trkpt>
            <trkpt lon="100.964527" lat="12.905996">
                <ele>50.606567</ele>
                <time>2004-10-31T01:19:26Z</time>
            </trkpt>
            <trkpt lon="100.964527" lat="12.905974">
                <ele>51.087158</ele>
                <time>2004-10-31T01:19:42Z</time>
            </trkpt>
            <trkpt lon="100.964527" lat="12.905953">
                <ele>50.606567</ele>
                <time>2004-10-31T01:20:11Z</time>
            </trkpt>
            <trkpt lon="100.964527" lat="12.905931">
                <ele>50.606567</ele>
                <time>2004-10-31T01:20:13Z</time>
            </trkpt>
            <trkpt lon="100.964484" lat="12.905867">
                <ele>51.087158</ele>
                <time>2004-10-31T01:20:18Z</time>
            </trkpt>
            <trkpt lon="100.964205" lat="12.905695">
                <ele>51.567871</ele>
                <time>2004-10-31T01:20:31Z</time>
            </trkpt>
            <trkpt lon="100.963819" lat="12.905459">
                <ele>52.048584</ele>
                <time>2004-10-31T01:20:45Z</time>
            </trkpt>
            <trkpt lon="100.963690" lat="12.905309">
                <ele>53.490479</ele>
                <time>2004-10-31T01:20:56Z</time>
            </trkpt>
            <trkpt lon="100.963690" lat="12.905159">
                <ele>51.567871</ele>
                <time>2004-10-31T01:21:11Z</time>
            </trkpt>
            <trkpt lon="100.963712" lat="12.905116">
                <ele>53.009766</ele>
                <time>2004-10-31T01:21:25Z</time>
            </trkpt>
            <trkpt lon="100.963755" lat="12.905030">
                <ele>53.009766</ele>
                <time>2004-10-31T01:22:24Z</time>
            </trkpt>
            <trkpt lon="100.963755" lat="12.905030">
                <ele>53.971191</ele>
                <time>2004-10-31T01:22:49Z</time>
            </trkpt>
            <trkpt lon="100.963755" lat="12.905030">
                <ele>53.009766</ele>
                <time>2004-10-31T01:23:24Z</time>
            </trkpt>
            <trkpt lon="100.963776" lat="12.904987">
                <ele>52.048584</ele>
                <time>2004-10-31T01:23:46Z</time>
            </trkpt>
            <trkpt lon="100.963862" lat="12.904837">
                <ele>53.009766</ele>
                <time>2004-10-31T01:23:56Z</time>
            </trkpt>
            <trkpt lon="100.963991" lat="12.904451">
                <ele>52.048584</ele>
                <time>2004-10-31T01:24:16Z</time>
            </trkpt>
            <trkpt lon="100.964227" lat="12.904065">
                <ele>54.451782</ele>
                <time>2004-10-31T01:24:34Z</time>
            </trkpt>
            <trkpt lon="100.964377" lat="12.903678">
                <ele>54.932373</ele>
                <time>2004-10-31T01:24:51Z</time>
            </trkpt>
            <trkpt lon="100.964248" lat="12.903335">
                <ele>57.816528</ele>
                <time>2004-10-31T01:25:06Z</time>
            </trkpt>
            <trkpt lon="100.964227" lat="12.903271">
                <ele>58.297119</ele>
                <time>2004-10-31T01:25:08Z</time>
            </trkpt>
            <trkpt lon="100.964334" lat="12.902992">
                <ele>59.258423</ele>
                <time>2004-10-31T01:25:22Z</time>
            </trkpt>
            <trkpt lon="100.964506" lat="12.902477">
                <ele>60.219727</ele>
                <time>2004-10-31T01:25:39Z</time>
            </trkpt>
            <trkpt lon="100.964592" lat="12.902327">
                <ele>59.739136</ele>
                <time>2004-10-31T01:25:50Z</time>
            </trkpt>
            <trkpt lon="100.964613" lat="12.902305">
                <ele>59.739136</ele>
                <time>2004-10-31T01:25:53Z</time>
            </trkpt>
            <trkpt lon="100.964613" lat="12.902241">
                <ele>59.739136</ele>
                <time>2004-10-31T01:25:57Z</time>
            </trkpt>
            <trkpt lon="100.964828" lat="12.901769">
                <ele>60.700317</ele>
                <time>2004-10-31T01:26:15Z</time>
            </trkpt>
            <trkpt lon="100.964720" lat="12.901404">
                <ele>60.700317</ele>
                <time>2004-10-31T01:26:28Z</time>
            </trkpt>
            <trkpt lon="100.964870" lat="12.900996">
                <ele>60.700317</ele>
                <time>2004-10-31T01:26:44Z</time>
            </trkpt>
            <trkpt lon="100.965149" lat="12.900589">
                <ele>61.661743</ele>
                <time>2004-10-31T01:27:01Z</time>
            </trkpt>
            <trkpt lon="100.965579" lat="12.900524">
                <ele>62.622925</ele>
                <time>2004-10-31T01:27:15Z</time>
            </trkpt>
            <trkpt lon="100.966051" lat="12.900503">
                <ele>64.065063</ele>
                <time>2004-10-31T01:27:30Z</time>
            </trkpt>
            <trkpt lon="100.966566" lat="12.900224">
                <ele>67.910278</ele>
                <time>2004-10-31T01:27:49Z</time>
            </trkpt>
            <trkpt lon="100.966909" lat="12.899666">
                <ele>64.065063</ele>
                <time>2004-10-31T01:28:10Z</time>
            </trkpt>
            <trkpt lon="100.966909" lat="12.899623">
                <ele>63.584351</ele>
                <time>2004-10-31T01:28:18Z</time>
            </trkpt>
            <trkpt lon="100.966973" lat="12.899559">
                <ele>63.103638</ele>
                <time>2004-10-31T01:28:27Z</time>
            </trkpt>
            <trkpt lon="100.967124" lat="12.899323">
                <ele>63.103638</ele>
                <time>2004-10-31T01:28:42Z</time>
            </trkpt>
            <trkpt lon="100.967338" lat="12.899044">
                <ele>65.507080</ele>
                <time>2004-10-31T01:28:57Z</time>
            </trkpt>
            <trkpt lon="100.967660" lat="12.898765">
                <ele>64.065063</ele>
                <time>2004-10-31T01:29:12Z</time>
            </trkpt>
            <trkpt lon="100.967982" lat="12.898357">
                <ele>63.584351</ele>
                <time>2004-10-31T01:29:26Z</time>
            </trkpt>
            <trkpt lon="100.968025" lat="12.898271">
                <ele>62.142334</ele>
                <time>2004-10-31T01:29:33Z</time>
            </trkpt>
            <trkpt lon="100.968239" lat="12.898228">
                <ele>61.661743</ele>
                <time>2004-10-31T01:29:44Z</time>
            </trkpt>
            <trkpt lon="100.968540" lat="12.898142">
                <ele>61.181030</ele>
                <time>2004-10-31T01:29:51Z</time>
            </trkpt>
            <trkpt lon="100.969033" lat="12.898164">
                <ele>61.661743</ele>
                <time>2004-10-31T01:30:05Z</time>
            </trkpt>
            <trkpt lon="100.969527" lat="12.898228">
                <ele>61.661743</ele>
                <time>2004-10-31T01:30:20Z</time>
            </trkpt>
            <trkpt lon="100.969870" lat="12.898250">
                <ele>61.181030</ele>
                <time>2004-10-31T01:30:33Z</time>
            </trkpt>
            <trkpt lon="100.970407" lat="12.898357">
                <ele>60.219727</ele>
                <time>2004-10-31T01:30:50Z</time>
            </trkpt>
            <trkpt lon="100.970535" lat="12.898378">
                <ele>60.700317</ele>
                <time>2004-10-31T01:30:56Z</time>
            </trkpt>
            <trkpt lon="100.970600" lat="12.898335">
                <ele>60.219727</ele>
                <time>2004-10-31T01:31:09Z</time>
            </trkpt>
            <trkpt lon="100.970621" lat="12.897971">
                <ele>58.297119</ele>
                <time>2004-10-31T01:31:21Z</time>
            </trkpt>
            <trkpt lon="100.970643" lat="12.897820">
                <ele>57.816528</ele>
                <time>2004-10-31T01:31:32Z</time>
            </trkpt>
            <trkpt lon="100.970643" lat="12.897713">
                <ele>56.374512</ele>
                <time>2004-10-31T01:31:56Z</time>
            </trkpt>
            <trkpt lon="100.970643" lat="12.897713">
                <ele>54.451782</ele>
                <time>2004-10-31T01:32:20Z</time>
            </trkpt>
            <trkpt lon="100.970643" lat="12.897606">
                <ele>53.971191</ele>
                <time>2004-10-31T01:32:58Z</time>
            </trkpt>
            <trkpt lon="100.970685" lat="12.897091">
                <ele>54.451782</ele>
                <time>2004-10-31T01:33:11Z</time>
            </trkpt>
            <trkpt lon="100.970707" lat="12.896640">
                <ele>55.413086</ele>
                <time>2004-10-31T01:33:21Z</time>
            </trkpt>
            <trkpt lon="100.970750" lat="12.895439">
                <ele>52.529175</ele>
                <time>2004-10-31T01:33:43Z</time>
            </trkpt>
            <trkpt lon="100.970793" lat="12.893937">
                <ele>54.451782</ele>
                <time>2004-10-31T01:34:09Z</time>
            </trkpt>
            <trkpt lon="100.970771" lat="12.893207">
                <ele>52.048584</ele>
                <time>2004-10-31T01:34:22Z</time>
            </trkpt>
            <trkpt lon="100.970685" lat="12.892971">
                <ele>50.606567</ele>
                <time>2004-10-31T01:34:29Z</time>
            </trkpt>
            <trkpt lon="100.970728" lat="12.892885">
                <ele>48.683960</ele>
                <time>2004-10-31T01:34:33Z</time>
            </trkpt>
            <trkpt lon="100.971029" lat="12.892456">
                <ele>45.319214</ele>
                <time>2004-10-31T01:34:46Z</time>
            </trkpt>
            <trkpt lon="100.971093" lat="12.892392">
                <ele>45.319214</ele>
                <time>2004-10-31T01:34:48Z</time>
            </trkpt>
            <trkpt lon="100.971222" lat="12.892306">
                <ele>45.319214</ele>
                <time>2004-10-31T01:34:53Z</time>
            </trkpt>
            <trkpt lon="100.971286" lat="12.892220">
                <ele>44.838623</ele>
                <time>2004-10-31T01:34:57Z</time>
            </trkpt>
            <trkpt lon="100.971544" lat="12.891941">
                <ele>43.396606</ele>
                <time>2004-10-31T01:35:10Z</time>
            </trkpt>
            <trkpt lon="100.971823" lat="12.891812">
                <ele>42.916016</ele>
                <time>2004-10-31T01:35:22Z</time>
            </trkpt>
            <trkpt lon="100.972145" lat="12.891576">
                <ele>43.396606</ele>
                <time>2004-10-31T01:35:36Z</time>
            </trkpt>
            <trkpt lon="100.972509" lat="12.891405">
                <ele>43.396606</ele>
                <time>2004-10-31T01:35:54Z</time>
            </trkpt>
            <trkpt lon="100.972810" lat="12.891104">
                <ele>44.838623</ele>
                <time>2004-10-31T01:36:12Z</time>
            </trkpt>
            <trkpt lon="100.973046" lat="12.890782">
                <ele>47.241821</ele>
                <time>2004-10-31T01:36:29Z</time>
            </trkpt>
            <trkpt lon="100.973239" lat="12.890546">
                <ele>49.164551</ele>
                <time>2004-10-31T01:36:42Z</time>
            </trkpt>
            <trkpt lon="100.973432" lat="12.890418">
                <ele>49.164551</ele>
                <time>2004-10-31T01:36:57Z</time>
            </trkpt>
            <trkpt lon="100.973475" lat="12.890418">
                <ele>52.048584</ele>
                <time>2004-10-31T01:37:47Z</time>
            </trkpt>
            <trkpt lon="100.973754" lat="12.890632">
                <ele>50.125977</ele>
                <time>2004-10-31T01:38:02Z</time>
            </trkpt>
            <trkpt lon="100.974312" lat="12.890911">
                <ele>51.087158</ele>
                <time>2004-10-31T01:38:20Z</time>
            </trkpt>
            <trkpt lon="100.974848" lat="12.891147">
                <ele>52.529175</ele>
                <time>2004-10-31T01:38:39Z</time>
            </trkpt>
            <trkpt lon="100.975299" lat="12.891426">
                <ele>53.009766</ele>
                <time>2004-10-31T01:38:56Z</time>
            </trkpt>
            <trkpt lon="100.975685" lat="12.891619">
                <ele>52.529175</ele>
                <time>2004-10-31T01:39:11Z</time>
            </trkpt>
            <trkpt lon="100.975771" lat="12.891684">
                <ele>53.009766</ele>
                <time>2004-10-31T01:39:18Z</time>
            </trkpt>
            <trkpt lon="100.976093" lat="12.891855">
                <ele>53.971191</ele>
                <time>2004-10-31T01:39:31Z</time>
            </trkpt>
            <trkpt lon="100.976565" lat="12.892113">
                <ele>53.971191</ele>
                <time>2004-10-31T01:39:46Z</time>
            </trkpt>
            <trkpt lon="100.976994" lat="12.892220">
                <ele>53.009766</ele>
                <time>2004-10-31T01:39:59Z</time>
            </trkpt>
            <trkpt lon="100.977015" lat="12.892070">
                <ele>53.490479</ele>
                <time>2004-10-31T01:40:09Z</time>
            </trkpt>
            <trkpt lon="100.977015" lat="12.892027">
                <ele>53.490479</ele>
                <time>2004-10-31T01:40:11Z</time>
            </trkpt>
            <trkpt lon="100.977123" lat="12.891963">
                <ele>53.490479</ele>
                <time>2004-10-31T01:40:16Z</time>
            </trkpt>
            <trkpt lon="100.977724" lat="12.891812">
                <ele>50.125977</ele>
                <time>2004-10-31T01:40:33Z</time>
            </trkpt>
            <trkpt lon="100.978067" lat="12.891684">
                <ele>47.722534</ele>
                <time>2004-10-31T01:40:44Z</time>
            </trkpt>
            <trkpt lon="100.978281" lat="12.891426">
                <ele>46.280640</ele>
                <time>2004-10-31T01:40:55Z</time>
            </trkpt>
            <trkpt lon="100.978475" lat="12.891040">
                <ele>46.280640</ele>
                <time>2004-10-31T01:41:10Z</time>
            </trkpt>
            <trkpt lon="100.978625" lat="12.890911">
                <ele>45.799927</ele>
                <time>2004-10-31T01:41:20Z</time>
            </trkpt>
            <trkpt lon="100.978668" lat="12.890890">
                <ele>46.280640</ele>
                <time>2004-10-31T01:41:27Z</time>
            </trkpt>
            <trkpt lon="100.978882" lat="12.890911">
                <ele>45.319214</ele>
                <time>2004-10-31T01:41:40Z</time>
            </trkpt>
            <trkpt lon="100.979140" lat="12.890911">
                <ele>44.838623</ele>
                <time>2004-10-31T01:41:53Z</time>
            </trkpt>
            <trkpt lon="100.979440" lat="12.890782">
                <ele>44.358032</ele>
                <time>2004-10-31T01:42:06Z</time>
            </trkpt>
            <trkpt lon="100.979762" lat="12.890396">
                <ele>45.799927</ele>
                <time>2004-10-31T01:42:23Z</time>
            </trkpt>
            <trkpt lon="100.980234" lat="12.890031">
                <ele>45.319214</ele>
                <time>2004-10-31T01:42:43Z</time>
            </trkpt>
            <trkpt lon="100.980535" lat="12.889860">
                <ele>43.877319</ele>
                <time>2004-10-31T01:42:57Z</time>
            </trkpt>
            <trkpt lon="100.980792" lat="12.889838">
                <ele>44.358032</ele>
                <time>2004-10-31T01:43:10Z</time>
            </trkpt>
            <trkpt lon="100.981050" lat="12.889924">
                <ele>43.877319</ele>
                <time>2004-10-31T01:43:22Z</time>
            </trkpt>
            <trkpt lon="100.981414" lat="12.889967">
                <ele>44.358032</ele>
                <time>2004-10-31T01:43:38Z</time>
            </trkpt>
            <trkpt lon="100.981758" lat="12.889924">
                <ele>45.319214</ele>
                <time>2004-10-31T01:43:51Z</time>
            </trkpt>
            <trkpt lon="100.982037" lat="12.889903">
                <ele>45.319214</ele>
                <time>2004-10-31T01:44:03Z</time>
            </trkpt>
            <trkpt lon="100.982423" lat="12.889946">
                <ele>44.838623</ele>
                <time>2004-10-31T01:44:17Z</time>
            </trkpt>
            <trkpt lon="100.982573" lat="12.890310">
                <ele>44.838623</ele>
                <time>2004-10-31T01:44:31Z</time>
            </trkpt>
            <trkpt lon="100.982788" lat="12.890761">
                <ele>45.319214</ele>
                <time>2004-10-31T01:44:47Z</time>
            </trkpt>
            <trkpt lon="100.983045" lat="12.891083">
                <ele>45.799927</ele>
                <time>2004-10-31T01:45:02Z</time>
            </trkpt>
            <trkpt lon="100.983453" lat="12.891362">
                <ele>46.280640</ele>
                <time>2004-10-31T01:45:19Z</time>
            </trkpt>
            <trkpt lon="100.983989" lat="12.891619">
                <ele>47.241821</ele>
                <time>2004-10-31T01:45:35Z</time>
            </trkpt>
            <trkpt lon="100.984440" lat="12.891769">
                <ele>48.203369</ele>
                <time>2004-10-31T01:45:50Z</time>
            </trkpt>
            <trkpt lon="100.984697" lat="12.891898">
                <ele>48.683960</ele>
                <time>2004-10-31T01:46:03Z</time>
            </trkpt>
            <trkpt lon="100.984719" lat="12.892005">
                <ele>49.164551</ele>
                <time>2004-10-31T01:46:16Z</time>
            </trkpt>
            <trkpt lon="100.984697" lat="12.892113">
                <ele>50.606567</ele>
                <time>2004-10-31T01:46:31Z</time>
            </trkpt>
            <trkpt lon="100.984740" lat="12.892520">
                <ele>50.125977</ele>
                <time>2004-10-31T01:46:47Z</time>
            </trkpt>
            <trkpt lon="100.984826" lat="12.893186">
                <ele>50.606567</ele>
                <time>2004-10-31T01:47:06Z</time>
            </trkpt>
            <trkpt lon="100.984826" lat="12.893550">
                <ele>51.567871</ele>
                <time>2004-10-31T01:47:21Z</time>
            </trkpt>
            <trkpt lon="100.984805" lat="12.893980">
                <ele>52.529175</ele>
                <time>2004-10-31T01:47:37Z</time>
            </trkpt>
            <trkpt lon="100.984805" lat="12.894194">
                <ele>53.971191</ele>
                <time>2004-10-31T01:47:49Z</time>
            </trkpt>
            <trkpt lon="100.984848" lat="12.894409">
                <ele>53.490479</ele>
                <time>2004-10-31T01:48:00Z</time>
            </trkpt>
            <trkpt lon="100.985062" lat="12.894859">
                <ele>53.009766</ele>
                <time>2004-10-31T01:48:18Z</time>
            </trkpt>
            <trkpt lon="100.985234" lat="12.895224">
                <ele>52.048584</ele>
                <time>2004-10-31T01:48:32Z</time>
            </trkpt>
            <trkpt lon="100.985448" lat="12.895761">
                <ele>52.529175</ele>
                <time>2004-10-31T01:48:49Z</time>
            </trkpt>
            <trkpt lon="100.985641" lat="12.896254">
                <ele>53.490479</ele>
                <time>2004-10-31T01:49:07Z</time>
            </trkpt>
            <trkpt lon="100.985813" lat="12.896726">
                <ele>54.451782</ele>
                <time>2004-10-31T01:49:23Z</time>
            </trkpt>
            <trkpt lon="100.985963" lat="12.897198">
                <ele>55.893799</ele>
                <time>2004-10-31T01:49:38Z</time>
            </trkpt>
            <trkpt lon="100.986135" lat="12.897885">
                <ele>57.816528</ele>
                <time>2004-10-31T01:50:00Z</time>
            </trkpt>
            <trkpt lon="100.986221" lat="12.898421">
                <ele>58.777710</ele>
                <time>2004-10-31T01:50:18Z</time>
            </trkpt>
            <trkpt lon="100.986285" lat="12.899044">
                <ele>60.219727</ele>
                <time>2004-10-31T01:50:39Z</time>
            </trkpt>
            <trkpt lon="100.986328" lat="12.899580">
                <ele>61.661743</ele>
                <time>2004-10-31T01:50:57Z</time>
            </trkpt>
            <trkpt lon="100.986371" lat="12.900052">
                <ele>63.584351</ele>
                <time>2004-10-31T01:51:15Z</time>
            </trkpt>
            <trkpt lon="100.986114" lat="12.900202">
                <ele>64.545654</ele>
                <time>2004-10-31T01:51:28Z</time>
            </trkpt>
            <trkpt lon="100.985534" lat="12.900352">
                <ele>66.468262</ele>
                <time>2004-10-31T01:51:49Z</time>
            </trkpt>
            <trkpt lon="100.984933" lat="12.900524">
                <ele>66.948975</ele>
                <time>2004-10-31T01:52:07Z</time>
            </trkpt>
            <trkpt lon="100.984311" lat="12.900696">
                <ele>67.429688</ele>
                <time>2004-10-31T01:52:24Z</time>
            </trkpt>
            <trkpt lon="100.984161" lat="12.900760">
                <ele>67.429688</ele>
                <time>2004-10-31T01:52:28Z</time>
            </trkpt>
            <trkpt lon="100.983582" lat="12.900867">
                <ele>67.910278</ele>
                <time>2004-10-31T01:52:43Z</time>
            </trkpt>
            <trkpt lon="100.983024" lat="12.901039">
                <ele>67.910278</ele>
                <time>2004-10-31T01:52:56Z</time>
            </trkpt>
            <trkpt lon="100.982251" lat="12.901254">
                <ele>68.390869</ele>
                <time>2004-10-31T01:53:13Z</time>
            </trkpt>
            <trkpt lon="100.981436" lat="12.901447">
                <ele>67.910278</ele>
                <time>2004-10-31T01:53:31Z</time>
            </trkpt>
            <trkpt lon="100.980663" lat="12.901683">
                <ele>68.871582</ele>
                <time>2004-10-31T01:53:49Z</time>
            </trkpt>
            <trkpt lon="100.980492" lat="12.901919">
                <ele>68.871582</ele>
                <time>2004-10-31T01:53:55Z</time>
            </trkpt>
            <trkpt lon="100.980320" lat="12.902563">
                <ele>69.352295</ele>
                <time>2004-10-31T01:54:11Z</time>
            </trkpt>
            <trkpt lon="100.980062" lat="12.903399">
                <ele>68.871582</ele>
                <time>2004-10-31T01:54:31Z</time>
            </trkpt>
            <trkpt lon="100.979977" lat="12.903485">
                <ele>68.390869</ele>
                <time>2004-10-31T01:54:35Z</time>
            </trkpt>
            <trkpt lon="100.979869" lat="12.903464">
                <ele>67.910278</ele>
                <time>2004-10-31T01:54:39Z</time>
            </trkpt>
            <trkpt lon="100.979676" lat="12.903421">
                <ele>67.910278</ele>
                <time>2004-10-31T01:54:45Z</time>
            </trkpt>
            <trkpt lon="100.978754" lat="12.903121">
                <ele>64.545654</ele>
                <time>2004-10-31T01:55:05Z</time>
            </trkpt>
            <trkpt lon="100.978260" lat="12.902970">
                <ele>63.103638</ele>
                <time>2004-10-31T01:55:18Z</time>
            </trkpt>
            <trkpt lon="100.978045" lat="12.902970">
                <ele>63.103638</ele>
                <time>2004-10-31T01:55:28Z</time>
            </trkpt>
            <trkpt lon="100.978024" lat="12.902949">
                <ele>62.142334</ele>
                <time>2004-10-31T01:56:04Z</time>
            </trkpt>
            <trkpt lon="100.977981" lat="12.902884">
                <ele>62.142334</ele>
                <time>2004-10-31T01:56:09Z</time>
            </trkpt>
            <trkpt lon="100.977616" lat="12.902756">
                <ele>60.700317</ele>
                <time>2004-10-31T01:56:23Z</time>
            </trkpt>
            <trkpt lon="100.977144" lat="12.902606">
                <ele>59.258423</ele>
                <time>2004-10-31T01:56:37Z</time>
            </trkpt>
            <trkpt lon="100.976608" lat="12.902434">
                <ele>57.335815</ele>
                <time>2004-10-31T01:56:52Z</time>
            </trkpt>
            <trkpt lon="100.976200" lat="12.902284">
                <ele>56.374512</ele>
                <time>2004-10-31T01:57:06Z</time>
            </trkpt>
            <trkpt lon="100.975664" lat="12.902198">
                <ele>56.374512</ele>
                <time>2004-10-31T01:57:22Z</time>
            </trkpt>
            <trkpt lon="100.975106" lat="12.902241">
                <ele>54.932373</ele>
                <time>2004-10-31T01:57:38Z</time>
            </trkpt>
            <trkpt lon="100.974677" lat="12.902348">
                <ele>53.971191</ele>
                <time>2004-10-31T01:57:50Z</time>
            </trkpt>
            <trkpt lon="100.974290" lat="12.902241">
                <ele>53.971191</ele>
                <time>2004-10-31T01:58:03Z</time>
            </trkpt>
            <trkpt lon="100.973754" lat="12.902069">
                <ele>53.490479</ele>
                <time>2004-10-31T01:58:21Z</time>
            </trkpt>
            <trkpt lon="100.973175" lat="12.901897">
                <ele>53.971191</ele>
                <time>2004-10-31T01:58:37Z</time>
            </trkpt>
            <trkpt lon="100.972939" lat="12.901919">
                <ele>54.451782</ele>
                <time>2004-10-31T01:58:46Z</time>
            </trkpt>
            <trkpt lon="100.972917" lat="12.901983">
                <ele>55.893799</ele>
                <time>2004-10-31T01:58:59Z</time>
            </trkpt>
            <trkpt lon="100.972939" lat="12.902005">
                <ele>55.893799</ele>
                <time>2004-10-31T01:59:01Z</time>
            </trkpt>
            <trkpt lon="100.973003" lat="12.902262">
                <ele>56.374512</ele>
                <time>2004-10-31T01:59:15Z</time>
            </trkpt>
            <trkpt lon="100.972981" lat="12.902863">
                <ele>56.374512</ele>
                <time>2004-10-31T01:59:34Z</time>
            </trkpt>
            <trkpt lon="100.972874" lat="12.903314">
                <ele>57.816528</ele>
                <time>2004-10-31T01:59:49Z</time>
            </trkpt>
            <trkpt lon="100.972810" lat="12.903979">
                <ele>61.181030</ele>
                <time>2004-10-31T02:00:11Z</time>
            </trkpt>
            <trkpt lon="100.972896" lat="12.904301">
                <ele>61.661743</ele>
                <time>2004-10-31T02:00:23Z</time>
            </trkpt>
            <trkpt lon="100.972853" lat="12.904730">
                <ele>64.545654</ele>
                <time>2004-10-31T02:00:39Z</time>
            </trkpt>
            <trkpt lon="100.972724" lat="12.905352">
                <ele>65.026367</ele>
                <time>2004-10-31T02:00:57Z</time>
            </trkpt>
            <trkpt lon="100.972574" lat="12.905867">
                <ele>63.584351</ele>
                <time>2004-10-31T02:01:13Z</time>
            </trkpt>
            <trkpt lon="100.972166" lat="12.906318">
                <ele>63.103638</ele>
                <time>2004-10-31T02:01:30Z</time>
            </trkpt>
            <trkpt lon="100.971951" lat="12.906983">
                <ele>63.584351</ele>
                <time>2004-10-31T02:01:49Z</time>
            </trkpt>
            <trkpt lon="100.971994" lat="12.907627">
                <ele>63.584351</ele>
                <time>2004-10-31T02:02:05Z</time>
            </trkpt>
            <trkpt lon="100.972252" lat="12.908120">
                <ele>63.584351</ele>
                <time>2004-10-31T02:02:22Z</time>
            </trkpt>
            <trkpt lon="100.972424" lat="12.908506">
                <ele>63.103638</ele>
                <time>2004-10-31T02:02:34Z</time>
            </trkpt>
            <trkpt lon="100.972574" lat="12.908871">
                <ele>61.181030</ele>
                <time>2004-10-31T02:02:46Z</time>
            </trkpt>
            <trkpt lon="100.972681" lat="12.909172">
                <ele>58.777710</ele>
                <time>2004-10-31T02:03:01Z</time>
            </trkpt>
            <trkpt lon="100.972810" lat="12.909558">
                <ele>57.335815</ele>
                <time>2004-10-31T02:03:16Z</time>
            </trkpt>
            <trkpt lon="100.973110" lat="12.909665">
                <ele>55.893799</ele>
                <time>2004-10-31T02:03:28Z</time>
            </trkpt>
            <trkpt lon="100.973282" lat="12.909665">
                <ele>55.413086</ele>
                <time>2004-10-31T02:03:36Z</time>
            </trkpt>
            <trkpt lon="100.973346" lat="12.909923">
                <ele>55.413086</ele>
                <time>2004-10-31T02:03:45Z</time>
            </trkpt>
            <trkpt lon="100.973754" lat="12.910159">
                <ele>57.335815</ele>
                <time>2004-10-31T02:04:03Z</time>
            </trkpt>
            <trkpt lon="100.974483" lat="12.910888">
                <ele>56.374512</ele>
                <time>2004-10-31T02:04:31Z</time>
            </trkpt>
            <trkpt lon="100.974612" lat="12.911553">
                <ele>53.490479</ele>
                <time>2004-10-31T02:04:48Z</time>
            </trkpt>
            <trkpt lon="100.974655" lat="12.912004">
                <ele>53.971191</ele>
                <time>2004-10-31T02:05:01Z</time>
            </trkpt>
            <trkpt lon="100.974720" lat="12.912068">
                <ele>53.490479</ele>
                <time>2004-10-31T02:05:07Z</time>
            </trkpt>
            <trkpt lon="100.975063" lat="12.912090">
                <ele>52.529175</ele>
                <time>2004-10-31T02:05:22Z</time>
            </trkpt>
            <trkpt lon="100.975728" lat="12.911918">
                <ele>52.048584</ele>
                <time>2004-10-31T02:05:42Z</time>
            </trkpt>
            <trkpt lon="100.976543" lat="12.911532">
                <ele>53.971191</ele>
                <time>2004-10-31T02:06:05Z</time>
            </trkpt>
            <trkpt lon="100.977187" lat="12.911360">
                <ele>53.971191</ele>
                <time>2004-10-31T02:06:22Z</time>
            </trkpt>
            <trkpt lon="100.977616" lat="12.911038">
                <ele>55.893799</ele>
                <time>2004-10-31T02:06:37Z</time>
            </trkpt>
            <trkpt lon="100.978196" lat="12.910652">
                <ele>58.297119</ele>
                <time>2004-10-31T02:06:54Z</time>
            </trkpt>
            <trkpt lon="100.978947" lat="12.910159">
                <ele>56.855103</ele>
                <time>2004-10-31T02:07:15Z</time>
            </trkpt>
            <trkpt lon="100.979719" lat="12.909708">
                <ele>56.855103</ele>
                <time>2004-10-31T02:07:36Z</time>
            </trkpt>
            <trkpt lon="100.980492" lat="12.909429">
                <ele>56.855103</ele>
                <time>2004-10-31T02:07:57Z</time>
            </trkpt>
            <trkpt lon="100.980535" lat="12.909451">
                <ele>56.855103</ele>
                <time>2004-10-31T02:08:00Z</time>
            </trkpt>
            <trkpt lon="100.980513" lat="12.909558">
                <ele>57.335815</ele>
                <time>2004-10-31T02:08:12Z</time>
            </trkpt>
            <trkpt lon="100.980556" lat="12.909772">
                <ele>56.374512</ele>
                <time>2004-10-31T02:08:27Z</time>
            </trkpt>
            <trkpt lon="100.980792" lat="12.910502">
                <ele>56.374512</ele>
                <time>2004-10-31T02:08:51Z</time>
            </trkpt>
            <trkpt lon="100.980835" lat="12.910652">
                <ele>56.855103</ele>
                <time>2004-10-31T02:08:56Z</time>
            </trkpt>
            <trkpt lon="100.980256" lat="12.910974">
                <ele>56.855103</ele>
                <time>2004-10-31T02:09:14Z</time>
            </trkpt>
            <trkpt lon="100.979633" lat="12.911296">
                <ele>57.335815</ele>
                <time>2004-10-31T02:09:33Z</time>
            </trkpt>
            <trkpt lon="100.979569" lat="12.911339">
                <ele>57.335815</ele>
                <time>2004-10-31T02:09:35Z</time>
            </trkpt>
            <trkpt lon="100.979548" lat="12.911446">
                <ele>56.855103</ele>
                <time>2004-10-31T02:09:39Z</time>
            </trkpt>
            <trkpt lon="100.979762" lat="12.911854">
                <ele>55.413086</ele>
                <time>2004-10-31T02:09:52Z</time>
            </trkpt>
            <trkpt lon="100.979891" lat="12.911961">
                <ele>54.451782</ele>
                <time>2004-10-31T02:09:56Z</time>
            </trkpt>
            <trkpt lon="100.980170" lat="12.912240">
                <ele>53.971191</ele>
                <time>2004-10-31T02:10:08Z</time>
            </trkpt>
            <trkpt lon="100.980535" lat="12.912369">
                <ele>55.893799</ele>
                <time>2004-10-31T02:10:22Z</time>
            </trkpt>
            <trkpt lon="100.980685" lat="12.912562">
                <ele>56.374512</ele>
                <time>2004-10-31T02:10:32Z</time>
            </trkpt>
            <trkpt lon="100.980899" lat="12.912927">
                <ele>57.816528</ele>
                <time>2004-10-31T02:10:47Z</time>
            </trkpt>
            <trkpt lon="100.981157" lat="12.913356">
                <ele>60.219727</ele>
                <time>2004-10-31T02:11:05Z</time>
            </trkpt>
            <trkpt lon="100.981371" lat="12.913742">
                <ele>62.142334</ele>
                <time>2004-10-31T02:11:22Z</time>
            </trkpt>
            <trkpt lon="100.981543" lat="12.914042">
                <ele>63.584351</ele>
                <time>2004-10-31T02:11:36Z</time>
            </trkpt>
            <trkpt lon="100.981629" lat="12.914236">
                <ele>65.507080</ele>
                <time>2004-10-31T02:11:48Z</time>
            </trkpt>
            <trkpt lon="100.981650" lat="12.914236">
                <ele>65.507080</ele>
                <time>2004-10-31T02:12:00Z</time>
            </trkpt>
            <trkpt lon="100.981672" lat="12.914236">
                <ele>64.545654</ele>
                <time>2004-10-31T02:12:09Z</time>
            </trkpt>
            <trkpt lon="100.982080" lat="12.914021">
                <ele>66.468262</ele>
                <time>2004-10-31T02:12:28Z</time>
            </trkpt>
            <trkpt lon="100.982659" lat="12.913721">
                <ele>65.987671</ele>
                <time>2004-10-31T02:12:46Z</time>
            </trkpt>
            <trkpt lon="100.982916" lat="12.913592">
                <ele>65.987671</ele>
                <time>2004-10-31T02:12:55Z</time>
            </trkpt>
            <trkpt lon="100.982959" lat="12.913549">
                <ele>65.507080</ele>
                <time>2004-10-31T02:12:59Z</time>
            </trkpt>
            <trkpt lon="100.982981" lat="12.913592">
                <ele>66.948975</ele>
                <time>2004-10-31T02:13:04Z</time>
            </trkpt>
            <trkpt lon="100.982959" lat="12.913613">
                <ele>66.948975</ele>
                <time>2004-10-31T02:13:09Z</time>
            </trkpt>
            <trkpt lon="100.983024" lat="12.913978">
                <ele>66.468262</ele>
                <time>2004-10-31T02:13:25Z</time>
            </trkpt>
            <trkpt lon="100.983088" lat="12.914193">
                <ele>66.948975</ele>
                <time>2004-10-31T02:13:39Z</time>
            </trkpt>
            <trkpt lon="100.983088" lat="12.914193">
                <ele>67.429688</ele>
                <time>2004-10-31T02:13:40Z</time>
            </trkpt>
            <trkpt lon="100.983109" lat="12.914214">
                <ele>67.910278</ele>
                <time>2004-10-31T02:13:43Z</time>
            </trkpt>
            <trkpt lon="100.983152" lat="12.914300">
                <ele>67.910278</ele>
                <time>2004-10-31T02:13:49Z</time>
            </trkpt>
            <trkpt lon="100.983238" lat="12.914622">
                <ele>69.352295</ele>
                <time>2004-10-31T02:14:05Z</time>
            </trkpt>
            <trkpt lon="100.983260" lat="12.915051">
                <ele>70.794189</ele>
                <time>2004-10-31T02:14:24Z</time>
            </trkpt>
            <trkpt lon="100.983324" lat="12.915566">
                <ele>73.197632</ele>
                <time>2004-10-31T02:14:43Z</time>
            </trkpt>
            <trkpt lon="100.983324" lat="12.915952">
                <ele>76.081421</ele>
                <time>2004-10-31T02:15:00Z</time>
            </trkpt>
            <trkpt lon="100.983474" lat="12.916145">
                <ele>79.446045</ele>
                <time>2004-10-31T02:15:14Z</time>
            </trkpt>
            <trkpt lon="100.983496" lat="12.916188">
                <ele>80.407471</ele>
                <time>2004-10-31T02:15:28Z</time>
            </trkpt>
            <trkpt lon="100.983539" lat="12.916231">
                <ele>80.888184</ele>
                <time>2004-10-31T02:15:35Z</time>
            </trkpt>
            <trkpt lon="100.983603" lat="12.916253">
                <ele>84.733398</ele>
                <time>2004-10-31T02:15:56Z</time>
            </trkpt>
            <trkpt lon="100.983624" lat="12.916253">
                <ele>85.694580</ele>
                <time>2004-10-31T02:16:01Z</time>
            </trkpt>
            <trkpt lon="100.983646" lat="12.916231">
                <ele>89.539917</ele>
                <time>2004-10-31T02:16:13Z</time>
            </trkpt>
            <trkpt lon="100.983710" lat="12.916231">
                <ele>88.578735</ele>
                <time>2004-10-31T02:16:30Z</time>
            </trkpt>
            <trkpt lon="100.984075" lat="12.916317">
                <ele>88.098022</ele>
                <time>2004-10-31T02:16:48Z</time>
            </trkpt>
            <trkpt lon="100.984418" lat="12.916532">
                <ele>87.136597</ele>
                <time>2004-10-31T02:17:05Z</time>
            </trkpt>
            <trkpt lon="100.984890" lat="12.916811">
                <ele>90.501343</ele>
                <time>2004-10-31T02:17:24Z</time>
            </trkpt>
            <trkpt lon="100.985470" lat="12.917047">
                <ele>92.904541</ele>
                <time>2004-10-31T02:17:44Z</time>
            </trkpt>
            <trkpt lon="100.985899" lat="12.917025">
                <ele>92.904541</ele>
                <time>2004-10-31T02:17:58Z</time>
            </trkpt>
            <trkpt lon="100.986006" lat="12.916982">
                <ele>91.943237</ele>
                <time>2004-10-31T02:18:10Z</time>
            </trkpt>
            <trkpt lon="100.986264" lat="12.916982">
                <ele>91.462524</ele>
                <time>2004-10-31T02:18:24Z</time>
            </trkpt>
            <trkpt lon="100.986607" lat="12.917004">
                <ele>88.578735</ele>
                <time>2004-10-31T02:18:37Z</time>
            </trkpt>
            <trkpt lon="100.986629" lat="12.916982">
                <ele>88.578735</ele>
                <time>2004-10-31T02:18:38Z</time>
            </trkpt>
            <trkpt lon="100.986843" lat="12.916875">
                <ele>88.578735</ele>
                <time>2004-10-31T02:18:48Z</time>
            </trkpt>
            <trkpt lon="100.987380" lat="12.917068">
                <ele>88.098022</ele>
                <time>2004-10-31T02:19:06Z</time>
            </trkpt>
            <trkpt lon="100.987551" lat="12.917154">
                <ele>88.098022</ele>
                <time>2004-10-31T02:19:11Z</time>
            </trkpt>
            <trkpt lon="100.987573" lat="12.917283">
                <ele>87.136597</ele>
                <time>2004-10-31T02:19:15Z</time>
            </trkpt>
            <trkpt lon="100.987637" lat="12.917755">
                <ele>85.213989</ele>
                <time>2004-10-31T02:19:30Z</time>
            </trkpt>
            <trkpt lon="100.987787" lat="12.918162">
                <ele>84.252686</ele>
                <time>2004-10-31T02:19:44Z</time>
            </trkpt>
            <trkpt lon="100.987830" lat="12.918227">
                <ele>84.733398</ele>
                <time>2004-10-31T02:19:46Z</time>
            </trkpt>
            <trkpt lon="100.987916" lat="12.918248">
                <ele>84.252686</ele>
                <time>2004-10-31T02:19:50Z</time>
            </trkpt>
            <trkpt lon="100.988045" lat="12.918119">
                <ele>85.694580</ele>
                <time>2004-10-31T02:20:07Z</time>
            </trkpt>
            <trkpt lon="100.988152" lat="12.917905">
                <ele>83.291382</ele>
                <time>2004-10-31T02:20:28Z</time>
            </trkpt>
            <trkpt lon="100.988667" lat="12.917197">
                <ele>82.810791</ele>
                <time>2004-10-31T02:20:56Z</time>
            </trkpt>
            <trkpt lon="100.989182" lat="12.916789">
                <ele>85.694580</ele>
                <time>2004-10-31T02:21:15Z</time>
            </trkpt>
            <trkpt lon="100.989611" lat="12.916896">
                <ele>82.810791</ele>
                <time>2004-10-31T02:21:33Z</time>
            </trkpt>
            <trkpt lon="100.989697" lat="12.916939">
                <ele>83.291382</ele>
                <time>2004-10-31T02:21:44Z</time>
            </trkpt>
            <trkpt lon="100.989933" lat="12.916982">
                <ele>83.291382</ele>
                <time>2004-10-31T02:22:14Z</time>
            </trkpt>
            <trkpt lon="100.990534" lat="12.917218">
                <ele>82.810791</ele>
                <time>2004-10-31T02:22:35Z</time>
            </trkpt>
            <trkpt lon="100.991220" lat="12.917519">
                <ele>83.771973</ele>
                <time>2004-10-31T02:22:53Z</time>
            </trkpt>
            <trkpt lon="100.991886" lat="12.917862">
                <ele>83.771973</ele>
                <time>2004-10-31T02:23:12Z</time>
            </trkpt>
            <trkpt lon="100.992401" lat="12.918162">
                <ele>83.771973</ele>
                <time>2004-10-31T02:23:30Z</time>
            </trkpt>
            <trkpt lon="100.992422" lat="12.918184">
                <ele>83.291382</ele>
                <time>2004-10-31T02:23:39Z</time>
            </trkpt>
            <trkpt lon="100.992637" lat="12.918248">
                <ele>82.810791</ele>
                <time>2004-10-31T02:23:50Z</time>
            </trkpt>
            <trkpt lon="100.993044" lat="12.918441">
                <ele>82.810791</ele>
                <time>2004-10-31T02:24:03Z</time>
            </trkpt>
            <trkpt lon="100.993195" lat="12.918506">
                <ele>82.810791</ele>
                <time>2004-10-31T02:24:07Z</time>
            </trkpt>
            <trkpt lon="100.993752" lat="12.918656">
                <ele>82.810791</ele>
                <time>2004-10-31T02:24:22Z</time>
            </trkpt>
            <trkpt lon="100.994461" lat="12.918549">
                <ele>80.407471</ele>
                <time>2004-10-31T02:24:38Z</time>
            </trkpt>
            <trkpt lon="100.994911" lat="12.918398">
                <ele>79.446045</ele>
                <time>2004-10-31T02:24:50Z</time>
            </trkpt>
            <trkpt lon="100.995040" lat="12.918098">
                <ele>78.965454</ele>
                <time>2004-10-31T02:24:59Z</time>
            </trkpt>
            <trkpt lon="100.994740" lat="12.918077">
                <ele>78.965454</ele>
                <time>2004-10-31T02:25:05Z</time>
            </trkpt>
            <trkpt lon="100.994697" lat="12.918098">
                <ele>78.965454</ele>
                <time>2004-10-31T02:25:06Z</time>
            </trkpt>
            <trkpt lon="100.994225" lat="12.918248">
                <ele>79.446045</ele>
                <time>2004-10-31T02:25:22Z</time>
            </trkpt>
            <trkpt lon="100.994139" lat="12.918313">
                <ele>78.965454</ele>
                <time>2004-10-31T02:25:31Z</time>
            </trkpt>
        </trkseg>
    </trk>
</gpx>